Time;durP1;ratioP1;P1;durP2;ratioP2;P2;SDS_P1;SDS_P2;PMS_P1;PMS_P2;Temp;Humidity;BMP_temperature;BMP_pressure;BME280_temperature;BME280_humidity;BME280_pressure;Samples;Min_cycle;Max_cycle;Signal;HPM_P1;HPM_P2
2022/05/27 00:01:59;;;;;;;2.70;1.60;;;;;;;;;;4972693;28;20523;-65
2022/05/27 00:04:25;;;;;;;3.58;1.33;;;;;;;;;;4972942;28;20038;-66
2022/05/27 00:06:50;;;;;;;3.60;1.70;;;;;;;;;;4973046;28;20109;-64
2022/05/27 00:09:16;;;;;;;4.45;1.75;;;;;;;;;;4972870;28;20630;-64
2022/05/27 00:11:41;;;;;;;3.33;1.40;;;;;;;;;;4956575;28;20071;-64
2022/05/27 00:14:07;;;;;;;2.40;1.45;;;;;;;;;;4972868;28;20089;-65
2022/05/27 00:16:32;;;;;;;2.53;1.40;;;;;;;;;;4972280;28;20133;-65
2022/05/27 00:18:58;;;;;;;2.78;1.48;;;;;;;;;;4972335;28;20074;-64
2022/05/27 00:21:25;;;;;;;2.97;1.40;;;;;;;;;;4972704;28;20066;-64
2022/05/27 00:23:51;;;;;;;2.67;1.38;;;;;;;;;;4972566;28;20034;-64
2022/05/27 00:26:16;;;;;;;2.80;2.17;;;;;;;;;;4972025;28;20053;-64
2022/05/27 00:28:42;;;;;;;1.85;1.42;;;;;;;;;;4972446;28;20556;-62
2022/05/27 00:31:07;;;;;;;2.67;1.50;;;;;;;;;;4972244;28;20054;-64
2022/05/27 00:33:35;;;;;;;2.53;1.40;;;;;;;;;;4972535;28;20070;-64
2022/05/27 00:36:00;;;;;;;1.70;1.30;;;;;;;;;;4980378;28;20166;-63
2022/05/27 00:38:26;;;;;;;3.75;1.50;;;;;;;;;;4993787;28;20102;-61
2022/05/27 00:40:53;;;;;;;2.08;1.50;;;;;;;;;;4993800;28;20034;-64
2022/05/27 00:43:20;;;;;;;3.13;1.45;;;;;;;;;;4993777;28;20065;-67
2022/05/27 00:45:59;;;;;;;3.65;1.70;;;;;;;;;;4993553;28;20030;-66
2022/05/27 00:48:25;;;;;;;1.95;1.40;;;;;;;;;;4993728;28;20061;-66
2022/05/27 00:50:51;;;;;;;3.45;1.75;;;;;;;;;;4993411;28;20074;-64
2022/05/27 00:53:29;;;;;;;3.83;1.42;;;;;;;;;;4993759;28;20022;-66
2022/05/27 00:55:58;;;;;;;2.65;1.70;;;;;;;;;;4993436;28;20030;-66
2022/05/27 00:58:29;;;;;;;2.57;1.53;;;;;;;;;;4993609;28;20022;-66
2022/05/27 01:00:54;;;;;;;4.20;1.55;;;;;;;;;;4993621;28;20027;-65
2022/05/27 01:03:22;;;;;;;4.32;1.77;;;;;;;;;;4993534;28;20164;-63
2022/05/27 01:05:48;;;;;;;2.65;1.70;;;;;;;;;;4993380;28;20042;-62
2022/05/27 01:08:16;;;;;;;2.88;1.77;;;;;;;;;;4993417;28;20022;-64
2022/05/27 01:10:53;;;;;;;2.88;1.85;;;;;;;;;;4993362;28;20030;-64
2022/05/27 01:13:21;;;;;;;6.97;2.35;;;;;;;;;;4993391;28;20037;-63
2022/05/27 01:15:52;;;;;;;4.13;1.90;;;;;;;;;;4992798;28;20093;-64
2022/05/27 01:22:11;;;;;;;3.97;2.50;;;;;;;;;;4933378;29;20067;-63
2022/05/27 01:24:55;;;;;;;3.65;2.38;;;;;;;;;;4933259;29;20048;-63
2022/05/27 01:28:07;;;;;;;4.78;2.70;;;;;;;;;;4933166;29;20524;-62
2022/05/27 01:30:46;;;;;;;5.75;3.00;;;;;;;;;;4876353;29;20098;-62
2022/05/27 01:33:24;;;;;;;5.90;2.92;;;;;;;;;;4861387;29;20052;-63
2022/05/27 01:36:07;;;;;;;6.05;2.90;;;;;;;;;;4876493;29;20041;-65
2022/05/27 01:38:56;;;;;;;5.70;2.90;;;;;;;;;;4878770;29;20033;-65
2022/05/27 01:41:54;;;;;;;4.82;2.85;;;;;;;;;;4880380;29;20034;-65
2022/05/27 01:44:35;;;;;;;4.15;2.63;;;;;;;;;;4879900;29;20033;-64
2022/05/27 01:47:04;;;;;;;5.97;3.28;;;;;;;;;;4880488;29;20037;-64
2022/05/27 01:49:57;;;;;;;5.85;2.95;;;;;;;;;;4880404;29;20037;-65
2022/05/27 01:52:43;;;;;;;7.90;3.78;;;;;;;;;;4880488;29;20508;-65
2022/05/27 01:55:22;;;;;;;6.50;3.17;;;;;;;;;;4880449;29;20068;-65
2022/05/27 01:57:54;;;;;;;7.85;3.08;;;;;;;;;;4900861;29;20051;-65
2022/05/27 02:00:24;;;;;;;3.28;2.55;;;;;;;;;;4917899;29;20051;-65
2022/05/27 02:03:04;;;;;;;5.32;3.10;;;;;;;;;;4918008;29;20120;-65
2022/05/27 02:05:46;;;;;;;10.75;3.72;;;;;;;;;;4917954;29;20028;-65
2022/05/27 02:08:19;;;;;;;5.65;3.30;;;;;;;;;;4985092;28;20622;-65
2022/05/27 02:10:59;;;;;;;5.75;3.47;;;;;;;;;;4996891;28;20033;-65
2022/05/27 02:13:38;;;;;;;4.22;3.08;;;;;;;;;;4996506;28;20018;-65
2022/05/27 02:16:06;;;;;;;4.93;3.35;;;;;;;;;;4996419;28;20046;-64
2022/05/27 02:18:48;;;;;;;3.92;3.42;;;;;;;;;;4996130;28;20027;-64
2022/05/27 02:21:40;;;;;;;4.85;3.08;;;;;;;;;;4996466;28;20022;-65
2022/05/27 02:24:27;;;;;;;5.18;3.60;;;;;;;;;;4989599;28;20185;-64
2022/05/27 02:27:02;;;;;;;5.88;3.60;;;;;;;;;;4996152;28;20122;-65
2022/05/27 02:29:35;;;;;;;6.43;3.58;;;;;;;;;;4996245;28;20463;-65
2022/05/27 02:32:09;;;;;;;5.47;3.15;;;;;;;;;;4995581;28;20030;-65
2022/05/27 02:37:31;;;;;;;5.68;3.58;;;;;;;;;;4996258;28;20045;-66
2022/05/27 02:39:58;;;;;;;6.95;3.47;;;;;;;;;;4995730;28;20034;-64
2022/05/27 02:42:41;;;;;;;4.75;3.47;;;;;;;;;;4995988;28;20034;-66
2022/05/27 02:45:19;;;;;;;6.65;3.55;;;;;;;;;;4995893;28;20495;-65
2022/05/27 02:47:58;;;;;;;4.72;3.22;;;;;;;;;;4995995;28;20438;-64
2022/05/27 02:51:09;;;;;;;3.50;2.90;;;;;;;;;;4995154;28;20229;-66
2022/05/27 02:54:12;;;;;;;4.43;3.13;;;;;;;;;;4988493;28;20443;-64
2022/05/27 02:56:47;;;;;;;4.15;2.75;;;;;;;;;;5004725;28;20045;-65
2022/05/27 02:59:14;;;;;;;3.65;2.50;;;;;;;;;;5004929;28;20046;-65
2022/05/27 03:01:40;;;;;;;4.45;2.60;;;;;;;;;;5000684;28;20034;-65
2022/05/27 03:04:06;;;;;;;3.80;2.30;;;;;;;;;;5004223;28;20089;-64
2022/05/27 03:06:57;;;;;;;3.75;2.25;;;;;;;;;;5004924;28;20097;-64
2022/05/27 03:09:27;;;;;;;;;;;;;;;;;;5001782;28;20022;-65
2022/05/27 03:12:06;;;;;;;4.72;2.05;;;;;;;;;;5003025;28;19918;-65
2022/05/27 03:15:09;;;;;;;3.67;2.40;;;;;;;;;;5002348;28;20033;-66
2022/05/27 03:17:49;;;;;;;3.80;2.38;;;;;;;;;;4994765;28;20073;-64
2022/05/27 03:20:15;;;;;;;3.97;2.40;;;;;;;;;;4995285;28;20081;-63
2022/05/27 03:22:55;;;;;;;3.83;2.45;;;;;;;;;;4995391;28;20022;-65
2022/05/27 03:25:33;;;;;;;5.13;2.53;;;;;;;;;;4995194;28;20109;-64
2022/05/27 03:28:10;;;;;;;3.70;2.60;;;;;;;;;;4995390;28;20034;-64
2022/05/27 03:30:51;;;;;;;5.97;2.35;;;;;;;;;;4994017;28;20072;-64
2022/05/27 03:33:26;;;;;;;4.15;2.92;;;;;;;;;;4995289;28;20109;-64
2022/05/27 03:36:20;;;;;;;3.45;2.60;;;;;;;;;;4995273;28;20038;-65
2022/05/27 03:39:02;;;;;;;3.45;2.63;;;;;;;;;;4982078;28;20046;-65
2022/05/27 03:41:39;;;;;;;4.22;2.60;;;;;;;;;;4995077;28;20105;-64
2022/05/27 03:44:06;;;;;;;4.22;2.70;;;;;;;;;;4993757;28;20393;-65
2022/05/27 03:46:33;;;;;;;4.57;2.22;;;;;;;;;;4994980;28;20034;-63
2022/05/27 03:49:00;;;;;;;4.22;2.45;;;;;;;;;;4994900;28;20034;-64
2022/05/27 03:51:35;;;;;;;2.83;2.00;;;;;;;;;;4995027;28;20085;-64
2022/05/27 03:54:04;;;;;;;3.83;2.30;;;;;;;;;;4994633;28;20567;-65
2022/05/27 03:56:34;;;;;;;4.40;2.65;;;;;;;;;;4994733;28;20026;-64
2022/05/27 03:59:00;;;;;;;;;;;;;;;;;;4994911;28;20022;-65
2022/05/27 04:01:29;;;;;;;3.88;2.28;;;;;;;;;;4993888;28;19940;-64
2022/05/27 04:03:58;;;;;;;5.03;2.28;;;;;;;;;;4994593;28;20026;-63
2022/05/27 04:06:25;;;;;;;4.28;2.33;;;;;;;;;;4994695;28;20030;-65
2022/05/27 04:08:51;;;;;;;4.85;2.20;;;;;;;;;;4994292;28;20081;-65
2022/05/27 04:11:16;;;;;;;4.10;2.40;;;;;;;;;;4994468;28;20026;-65
2022/05/27 04:13:42;;;;;;;7.55;2.63;;;;;;;;;;4994349;28;20034;-65
2022/05/27 04:16:07;;;;;;;5.15;2.58;;;;;;;;;;5004717;28;20129;-66
2022/05/27 04:18:33;;;;;;;5.88;2.85;;;;;;;;;;5001431;28;20041;-65
2022/05/27 04:20:58;;;;;;;5.00;2.75;;;;;;;;;;4994051;28;20023;-65
2022/05/27 04:23:37;;;;;;;5.25;2.60;;;;;;;;;;5069925;28;20421;-64
2022/05/27 04:26:03;;;;;;;5.88;2.88;;;;;;;;;;5070017;28;20080;-65
2022/05/27 04:28:29;;;;;;;5.75;2.90;;;;;;;;;;5068499;28;20047;-64
2022/05/27 04:30:54;;;;;;;5.45;2.60;;;;;;;;;;5069867;28;20031;-63
2022/05/27 04:33:20;;;;;;;4.80;2.63;;;;;;;;;;5069856;28;20037;-65
2022/05/27 04:35:46;;;;;;;4.20;2.53;;;;;;;;;;5069882;28;20394;-65
2022/05/27 04:38:12;;;;;;;6.57;3.10;;;;;;;;;;5069591;28;20044;-63
2022/05/27 04:40:38;;;;;;;5.78;2.67;;;;;;;;;;5069654;28;20478;-63
2022/05/27 04:43:04;;;;;;;4.63;2.70;;;;;;;;;;5069690;28;20033;-64
2022/05/27 04:45:29;;;;;;;5.05;3.00;;;;;;;;;;5068519;28;20027;-64
2022/05/27 04:47:56;;;;;;;5.10;2.60;;;;;;;;;;5069630;28;20036;-65
2022/05/27 04:50:22;;;;;;;5.25;2.58;;;;;;;;;;5069595;28;20021;-63
2022/05/27 04:52:47;;;;;;;3.97;2.58;;;;;;;;;;5069387;28;20025;-63
2022/05/27 04:55:15;;;;;;;7.88;3.13;;;;;;;;;;5069473;28;20048;-63
2022/05/27 04:57:53;;;;;;;3.30;2.67;;;;;;;;;;5069416;28;20064;-64
2022/05/27 05:00:23;;;;;;;3.90;2.55;;;;;;;;;;5069600;28;20029;-64
2022/05/27 05:02:49;;;;;;;6.35;2.97;;;;;;;;;;5069308;28;20060;-63
2022/05/27 05:05:17;;;;;;;5.78;2.40;;;;;;;;;;5069297;28;20055;-63
2022/05/27 05:07:50;;;;;;;4.50;2.92;;;;;;;;;;5069266;28;20020;-64
2022/05/27 05:10:18;;;;;;;7.85;2.90;;;;;;;;;;5069341;28;20398;-63
2022/05/27 05:12:44;;;;;;;4.47;2.85;;;;;;;;;;5069019;28;20047;-65
2022/05/27 05:15:11;;;;;;;5.55;2.60;;;;;;;;;;5069003;28;20466;-65
2022/05/27 05:17:38;;;;;;;6.03;2.78;;;;;;;;;;5068715;28;20020;-64
2022/05/27 05:20:05;;;;;;;6.47;3.30;;;;;;;;;;5068494;28;20157;-64
2022/05/27 05:22:31;;;;;;;8.77;3.00;;;;;;;;;;5067915;28;20053;-64
2022/05/27 05:24:57;;;;;;;10.02;3.05;;;;;;;;;;5068553;28;20032;-65
2022/05/27 05:27:24;;;;;;;4.82;2.90;;;;;;;;;;5068582;28;20025;-65
2022/05/27 05:29:52;;;;;;;4.00;2.30;;;;;;;;;;5068808;28;20416;-65
2022/05/27 05:32:17;;;;;;;8.82;2.83;;;;;;;;;;5068445;28;20100;-65
2022/05/27 05:34:43;;;;;;;6.65;2.83;;;;;;;;;;5056393;28;20126;-64
2022/05/27 05:37:08;;;;;;;7.43;2.72;;;;;;;;;;5055074;28;20028;-65
2022/05/27 05:39:36;;;;;;;3.85;2.10;;;;;;;;;;5055302;28;20040;-65
2022/05/27 05:42:05;;;;;;;6.13;2.80;;;;;;;;;;5054784;28;20033;-64
2022/05/27 05:44:31;;;;;;;5.95;2.58;;;;;;;;;;5055122;28;20084;-65
2022/05/27 05:46:57;;;;;;;7.78;3.22;;;;;;;;;;5055164;28;20386;-65
2022/05/27 05:49:23;;;;;;;8.15;2.58;;;;;;;;;;5054917;28;20417;-65
2022/05/27 05:51:50;;;;;;;6.47;2.13;;;;;;;;;;5054653;28;20048;-65
2022/05/27 05:54:16;;;;;;;8.52;2.20;;;;;;;;;;5054905;28;20029;-66
2022/05/27 05:56:41;;;;;;;5.32;1.90;;;;;;;;;;5054840;28;20053;-66
2022/05/27 05:59:07;;;;;;;7.18;2.13;;;;;;;;;;5054882;28;20064;-64
2022/05/27 06:01:33;;;;;;;4.70;1.73;;;;;;;;;;5054716;28;20078;-65
2022/05/27 06:03:58;;;;;;;7.07;1.98;;;;;;;;;;5054689;28;20025;-65
2022/05/27 06:06:24;;;;;;;4.20;1.70;;;;;;;;;;5054662;28;20074;-66
2022/05/27 06:08:50;;;;;;;3.20;1.65;;;;;;;;;;5054698;28;20017;-65
2022/05/27 06:11:15;;;;;;;3.95;1.80;;;;;;;;;;5054800;28;20036;-66
2022/05/27 06:13:41;;;;;;;4.10;1.45;;;;;;;;;;5054821;28;20028;-66
2022/05/27 06:16:09;;;;;;;6.57;1.58;;;;;;;;;;5054683;28;20457;-66
2022/05/27 06:18:35;;;;;;;3.33;1.23;;;;;;;;;;5047399;28;20029;-66
2022/05/27 06:21:02;;;;;;;5.60;2.10;;;;;;;;;;5054515;28;20025;-66
2022/05/27 06:23:28;;;;;;;2.88;1.40;;;;;;;;;;5054376;28;20251;-66
2022/05/27 06:25:59;;;;;;;4.25;1.35;;;;;;;;;;5054652;28;20024;-66
2022/05/27 06:36:39;;;;;;;8.73;1.40;;;;;;;;;;5034496;28;20028;-66
2022/05/27 06:39:05;;;;;;;7.97;1.27;;;;;;;;;;5034139;28;20029;-66
2022/05/27 06:41:31;;;;;;;3.47;1.30;;;;;;;;;;5034188;28;20021;-66
2022/05/27 06:43:57;;;;;;;6.43;1.42;;;;;;;;;;5034311;28;20030;-67
2022/05/27 06:46:23;;;;;;;4.43;1.13;;;;;;;;;;5033203;28;20021;-65
2022/05/27 06:48:49;;;;;;;4.47;1.10;;;;;;;;;;5033738;28;20029;-66
2022/05/27 06:51:14;;;;;;;2.97;1.05;;;;;;;;;;5034081;28;20025;-65
2022/05/27 06:53:40;;;;;;;11.98;1.50;;;;;;;;;;5034258;28;20033;-66
2022/05/27 06:56:07;;;;;;;6.50;1.35;;;;;;;;;;5034109;28;20112;-66
2022/05/27 06:58:33;;;;;;;4.78;1.10;;;;;;;;;;5043891;28;20029;-66
2022/05/27 07:00:59;;;;;;;3.60;1.60;;;;;;;;;;5053360;28;20025;-65
2022/05/27 07:03:25;;;;;;;4.65;1.23;;;;;;;;;;5053295;28;20102;-66
2022/05/27 07:05:50;;;;;;;6.63;1.30;;;;;;;;;;5053256;28;20021;-65
2022/05/27 07:08:16;;;;;;;6.10;1.00;;;;;;;;;;5053497;28;20028;-65
2022/05/27 07:10:42;;;;;;;3.40;1.00;;;;;;;;;;5052977;28;20025;-64
2022/05/27 07:13:07;;;;;;;5.03;0.95;;;;;;;;;;5053192;28;20482;-65
2022/05/27 07:15:33;;;;;;;3.45;1.08;;;;;;;;;;5053473;28;20029;-65
2022/05/27 07:18:02;;;;;;;7.40;1.73;;;;;;;;;;5052740;28;20040;-66
2022/05/27 07:20:27;;;;;;;3.65;1.33;;;;;;;;;;5053089;28;20036;-65
2022/05/27 07:22:53;;;;;;;3.95;1.02;;;;;;;;;;5053152;28;20045;-67
2022/05/27 07:25:18;;;;;;;6.68;1.00;;;;;;;;;;5053306;28;20025;-65
2022/05/27 07:27:44;;;;;;;3.45;1.55;;;;;;;;;;5053199;28;20033;-65
2022/05/27 07:30:14;;;;;;;5.15;1.40;;;;;;;;;;5053199;28;20176;-66
2022/05/27 07:32:40;;;;;;;7.63;1.80;;;;;;;;;;5052326;28;20036;-66
2022/05/27 07:35:07;;;;;;;7.03;1.40;;;;;;;;;;5052969;28;20029;-65
2022/05/27 07:37:33;;;;;;;5.93;1.45;;;;;;;;;;5052723;28;20021;-66
2022/05/27 07:39:58;;;;;;;6.85;1.33;;;;;;;;;;5052798;28;20028;-65
2022/05/27 07:42:24;;;;;;;2.78;1.10;;;;;;;;;;5052722;28;20107;-65
2022/05/27 07:44:50;;;;;;;3.03;1.15;;;;;;;;;;5052959;28;20045;-66
2022/05/27 07:47:17;;;;;;;2.97;1.20;;;;;;;;;;5052764;28;20044;-66
2022/05/27 07:49:43;;;;;;;5.68;1.40;;;;;;;;;;5052866;28;20024;-66
2022/05/27 07:52:08;;;;;;;4.10;1.13;;;;;;;;;;5052304;28;20044;-65
2022/05/27 07:54:34;;;;;;;5.32;1.38;;;;;;;;;;5052560;28;20025;-67
2022/05/27 07:57:00;;;;;;;4.00;1.30;;;;;;;;;;5052280;28;20032;-66
2022/05/27 07:59:26;;;;;;;4.88;1.35;;;;;;;;;;5052831;28;20075;-65
2022/05/27 08:01:52;;;;;;;3.13;1.20;;;;;;;;;;5052434;28;20044;-66
2022/05/27 08:04:17;;;;;;;4.43;1.30;;;;;;;;;;5052860;28;20099;-65
2022/05/27 08:06:43;;;;;;;6.25;1.30;;;;;;;;;;5052149;28;20482;-65
2022/05/27 08:09:09;;;;;;;3.72;1.25;;;;;;;;;;5052388;28;20056;-66
2022/05/27 08:11:34;;;;;;;4.68;1.65;;;;;;;;;;5052478;28;20029;-65
2022/05/27 08:14:01;;;;;;;2.50;0.90;;;;;;;;;;5052517;28;20184;-64
2022/05/27 08:16:32;;;;;;;3.45;0.93;;;;;;;;;;5052013;28;20527;-64
2022/05/27 08:18:59;;;;;;;5.00;1.52;;;;;;;;;;5051897;28;20060;-65
2022/05/27 08:21:25;;;;;;;4.35;1.60;;;;;;;;;;5052178;28;20021;-64
2022/05/27 08:23:51;;;;;;;5.05;1.40;;;;;;;;;;5052203;28;20029;-63
2022/05/27 08:26:16;;;;;;;4.13;1.30;;;;;;;;;;5052395;28;20017;-65
2022/05/27 08:28:42;;;;;;;2.83;1.10;;;;;;;;;;5052281;28;20116;-63
2022/05/27 08:31:08;;;;;;;4.47;1.13;;;;;;;;;;5050422;28;20032;-64
2022/05/27 08:39:12;;;;;;;5.60;1.15;;;;;;;;;;5051636;28;20131;-63
2022/05/27 08:41:43;;;;;;;8.00;1.20;;;;;;;;;;5052042;28;20025;-63
2022/05/27 08:44:38;;;;;;;2.60;1.20;;;;;;;;;;5052026;28;20017;-63
2022/05/27 08:47:28;;;;;;;4.28;0.98;;;;;;;;;;5052004;28;20025;-63
2022/05/27 08:50:30;;;;;;;6.47;1.73;;;;;;;;;;5051880;28;20115;-64
2022/05/27 08:53:06;;;;;;;6.47;1.30;;;;;;;;;;5050941;28;20500;-62
2022/05/27 09:01:28;;;;;;;10.32;1.70;;;;;;;;;;5052141;28;20504;-65
2022/05/27 09:04:18;;;;;;;6.50;1.48;;;;;;;;;;5051846;28;20504;-64
2022/05/27 09:06:51;;;;;;;7.10;1.23;;;;;;;;;;5051721;28;20451;-65
2022/05/27 09:09:25;;;;;;;5.82;1.67;;;;;;;;;;5053867;28;20082;-65
2022/05/27 09:12:19;;;;;;;6.13;1.60;;;;;;;;;;5055751;28;20032;-64
2022/05/27 09:14:57;;;;;;;6.28;1.70;;;;;;;;;;5055466;28;20024;-65
2022/05/27 09:17:38;;;;;;;12.07;2.72;;;;;;;;;;5055492;28;20108;-64
2022/05/27 09:20:30;;;;;;;3.50;1.60;;;;;;;;;;5055514;28;20533;-65
2022/05/27 09:23:21;;;;;;;8.70;1.58;;;;;;;;;;5055245;28;20056;-65
2022/05/27 09:26:14;;;;;;;2.90;1.10;;;;;;;;;;5055775;28;20451;-64
2022/05/27 09:29:16;;;;;;;5.68;1.45;;;;;;;;;;5053676;28;20060;-64
2022/05/27 09:31:55;;;;;;;5.07;1.20;;;;;;;;;;5051691;28;20021;-64
2022/05/27 09:34:26;;;;;;;4.47;1.10;;;;;;;;;;5054785;28;20040;-65
2022/05/27 09:36:54;;;;;;;4.50;1.08;;;;;;;;;;5055792;28;20043;-65
2022/05/27 09:39:22;;;;;;;3.92;1.45;;;;;;;;;;5055771;28;20079;-65
2022/05/27 09:42:38;;;;;;;8.10;1.80;;;;;;;;;;5056529;28;20385;-65
2022/05/27 09:45:04;;;;;;;6.15;2.15;;;;;;;;;;5033415;28;20109;-66
2022/05/27 09:47:32;;;;;;;5.47;1.60;;;;;;;;;;5032093;28;20037;-65
2022/05/27 09:50:01;;;;;;;4.18;1.30;;;;;;;;;;5032167;28;20025;-64
2022/05/27 09:52:33;;;;;;;2.78;1.30;;;;;;;;;;5031737;28;20034;-65
2022/05/27 09:55:12;;;;;;;7.07;1.65;;;;;;;;;;5030383;28;20406;-65
2022/05/27 09:57:54;;;;;;;5.97;1.73;;;;;;;;;;5031863;28;20482;-63
2022/05/27 10:00:37;;;;;;;6.88;1.25;;;;;;;;;;5032100;28;20057;-64
2022/05/27 10:03:26;;;;;;;5.95;1.85;;;;;;;;;;5032229;28;20131;-63
2022/05/27 10:05:56;;;;;;;5.03;1.00;;;;;;;;;;5032523;28;20529;-63
2022/05/27 10:08:37;;;;;;;4.25;1.10;;;;;;;;;;5032394;28;20061;-64
2022/05/27 10:11:27;;;;;;;4.05;1.30;;;;;;;;;;5032208;28;20026;-62
2022/05/27 10:14:10;;;;;;;3.15;1.33;;;;;;;;;;5032469;28;20468;-63
2022/05/27 10:16:39;;;;;;;3.85;1.30;;;;;;;;;;5032286;28;20753;-64
2022/05/27 10:19:10;;;;;;;3.55;1.02;;;;;;;;;;5042613;28;20040;-63
2022/05/27 10:22:19;;;;;;;3.60;1.10;;;;;;;;;;5054218;28;20052;-64
2022/05/27 10:24:54;;;;;;;5.90;1.23;;;;;;;;;;5032276;28;20056;-63
2022/05/27 10:27:22;;;;;;;6.47;1.33;;;;;;;;;;5032029;28;20040;-65
2022/05/27 10:29:57;;;;;;;4.50;1.45;;;;;;;;;;5032119;28;20482;-63
2022/05/27 10:32:39;;;;;;;5.32;1.55;;;;;;;;;;5030289;28;20025;-63
2022/05/27 10:35:30;;;;;;;5.50;1.50;;;;;;;;;;5032006;28;20043;-63
2022/05/27 10:38:14;;;;;;;4.47;1.27;;;;;;;;;;5015163;28;20536;-64
2022/05/27 10:40:59;;;;;;;4.15;1.73;;;;;;;;;;5031462;28;20044;-63
2022/05/27 10:43:44;;;;;;;4.45;1.63;;;;;;;;;;5031846;28;20029;-65
2022/05/27 10:46:15;;;;;;;5.20;1.20;;;;;;;;;;5031627;28;20417;-64
2022/05/27 10:48:51;;;;;;;4.80;1.10;;;;;;;;;;5031337;28;20034;-64
2022/05/27 10:51:38;;;;;;;5.80;1.00;;;;;;;;;;5030768;28;20038;-64
2022/05/27 10:54:12;;;;;;;8.35;1.00;;;;;;;;;;5029475;28;20037;-64
2022/05/27 11:02:03;;;;;;;4.95;1.00;;;;;;;;;;5031277;28;20022;-64
2022/05/27 11:03:17;;;;;;;5.03;1.63;;;;;;;;;;5050401;28;20052;-65
2022/05/27 11:06:00;;;;;;;4.90;1.60;;;;;;;;;;5053338;28;20024;-65
2022/05/27 11:08:30;;;;;;;4.55;1.05;;;;;;;;;;5052897;28;20039;-63
2022/05/27 11:11:07;;;;;;;6.85;1.40;;;;;;;;;;5052613;28;20032;-62
2022/05/27 11:17:00;;;;;;;2.95;1.00;;;;;;;;;;5053159;28;20032;-64
2022/05/27 11:19:47;;;;;;;3.58;1.15;;;;;;;;;;5046339;28;20040;-63
2022/05/27 11:22:15;;;;;;;3.38;1.13;;;;;;;;;;5052838;28;20037;-63
2022/05/27 11:25:05;;;;;;;3.70;1.25;;;;;;;;;;5051418;28;20117;-64
2022/05/27 11:27:52;;;;;;;2.92;1.00;;;;;;;;;;5050084;28;20021;-63
2022/05/27 11:30:20;;;;;;;7.18;1.20;;;;;;;;;;5052887;28;20021;-63
2022/05/27 11:33:01;;;;;;;3.10;0.93;;;;;;;;;;5052520;28;20037;-64
2022/05/27 11:35:46;;;;;;;6.55;1.40;;;;;;;;;;5052674;28;20490;-63
2022/05/27 11:38:32;;;;;;;5.70;1.17;;;;;;;;;;5052742;28;20036;-64
2022/05/27 11:41:03;;;;;;;9.00;1.40;;;;;;;;;;5052952;28;20055;-63
2022/05/27 11:43:32;;;;;;;2.83;0.90;;;;;;;;;;5052719;28;20132;-63
2022/05/27 11:46:00;;;;;;;7.95;1.60;;;;;;;;;;5052779;28;20087;-63
2022/05/27 11:49:00;;;;;;;3.40;1.10;;;;;;;;;;5052535;28;20083;-63
2022/05/27 11:52:08;;;;;;;3.90;1.20;;;;;;;;;;5030718;28;20140;-64
2022/05/27 11:55:01;;;;;;;2.65;0.90;;;;;;;;;;5030008;28;20037;-63
2022/05/27 11:57:26;;;;;;;5.65;1.08;;;;;;;;;;5030629;28;20056;-64
2022/05/27 12:00:02;;;;;;;5.75;1.00;;;;;;;;;;5030643;28;20458;-63
2022/05/27 12:02:48;;;;;;;4.70;1.17;;;;;;;;;;5030348;28;20049;-63
2022/05/27 12:05:19;;;;;;;4.97;0.93;;;;;;;;;;5030119;28;20030;-64
2022/05/27 12:08:10;;;;;;;2.58;1.00;;;;;;;;;;5030055;28;20060;-64
2022/05/27 12:10:38;;;;;;;2.78;1.10;;;;;;;;;;5029911;28;20486;-63
2022/05/27 12:13:34;;;;;;;4.68;1.08;;;;;;;;;;5030266;28;20472;-64
2022/05/27 12:16:05;;;;;;;4.70;1.08;;;;;;;;;;5030169;28;20037;-65
2022/05/27 12:18:45;;;;;;;2.40;0.80;;;;;;;;;;5029903;28;20092;-63
2022/05/27 12:21:14;;;;;;;7.35;3.05;;;;;;;;;;5029830;28;20091;-63
2022/05/27 12:23:45;;;;;;;10.93;2.75;;;;;;;;;;5030107;28;20052;-63
2022/05/27 12:26:12;;;;;;;7.60;1.50;;;;;;;;;;5030088;28;20041;-63
2022/05/27 12:28:41;;;;;;;8.43;4.80;;;;;;;;;;5031084;28;20475;-63
2022/05/27 12:31:08;;;;;;;13.10;2.90;;;;;;;;;;5032347;28;20040;-64
2022/05/27 12:33:36;;;;;;;10.73;7.03;;;;;;;;;;5032146;28;20029;-63
2022/05/27 12:36:06;;;;;;;4.20;1.73;;;;;;;;;;5032157;28;20053;-63
2022/05/27 12:38:37;;;;;;;6.47;1.50;;;;;;;;;;5031953;28;20108;-63
2022/05/27 12:41:07;;;;;;;4.03;1.40;;;;;;;;;;5032148;28;20068;-63
2022/05/27 12:43:38;;;;;;;6.50;1.60;;;;;;;;;;5031816;28;20025;-65
2022/05/27 12:46:03;;;;;;;5.55;1.48;;;;;;;;;;5036112;28;20030;-65
2022/05/27 12:48:32;;;;;;;7.72;1.35;;;;;;;;;;5035278;28;20381;-65
2022/05/27 12:51:20;;;;;;;6.85;1.83;;;;;;;;;;5035863;28;20439;-66
2022/05/27 12:53:46;;;;;;;5.13;1.23;;;;;;;;;;5032667;28;20041;-64
2022/05/27 13:02:14;;;;;;;6.68;1.42;;;;;;;;;;5044334;28;20234;-66
2022/05/27 13:04:47;;;;;;;3.10;1.00;;;;;;;;;;5055105;28;20028;-64
2022/05/27 13:07:14;;;;;;;5.00;1.10;;;;;;;;;;5055726;28;20029;-64
2022/05/27 13:09:46;;;;;;;6.35;1.30;;;;;;;;;;5055802;28;20029;-65
2022/05/27 13:12:44;;;;;;;8.07;1.42;;;;;;;;;;5055300;28;20481;-64
2022/05/27 13:15:14;;;;;;;3.28;1.08;;;;;;;;;;5055800;28;20062;-66
2022/05/27 13:17:51;;;;;;;4.53;1.27;;;;;;;;;;5055466;28;20452;-64
2022/05/27 13:20:19;;;;;;;5.32;1.23;;;;;;;;;;5055294;28;20497;-65
2022/05/27 13:23:23;;;;;;;4.28;1.42;;;;;;;;;;5055171;28;20493;-65
2022/05/27 13:26:19;;;;;;;11.20;1.25;;;;;;;;;;5033186;28;20076;-64
2022/05/27 13:28:53;;;;;;;13.07;1.85;;;;;;;;;;5029140;28;20029;-65
2022/05/27 13:31:21;;;;;;;5.55;1.52;;;;;;;;;;5033431;28;20025;-65
2022/05/27 13:33:53;;;;;;;30.15;5.18;;;;;;;;;;5048782;28;20079;-65
2022/05/27 13:36:24;;;;;;;17.83;2.88;;;;;;;;;;5052757;28;20037;-65
2022/05/27 13:39:10;;;;;;;39.70;5.43;;;;;;;;;;5053275;28;20033;-66
2022/05/27 13:41:56;;;;;;;24.88;4.55;;;;;;;;;;5053248;28;20041;-66
2022/05/27 13:44:24;;;;;;;21.95;3.88;;;;;;;;;;5052158;28;20056;-65
2022/05/27 13:47:01;;;;;;;37.20;5.78;;;;;;;;;;5052947;28;20041;-65
2022/05/27 13:49:32;;;;;;;35.80;5.75;;;;;;;;;;5052842;28;20037;-65
2022/05/27 13:52:00;;;;;;;12.50;2.42;;;;;;;;;;5051944;28;20037;-65
2022/05/27 13:54:35;;;;;;;19.90;3.70;;;;;;;;;;5052189;28;20033;-65
2022/05/27 13:57:05;;;;;;;19.65;3.42;;;;;;;;;;5052650;28;20033;-65
2022/05/27 13:59:47;;;;;;;;;;;;;;;;;;5053114;28;20029;-65
2022/05/27 14:02:43;;;;;;;16.45;3.10;;;;;;;;;;5071219;28;19953;-66
2022/05/27 14:05:16;;;;;;;7.15;1.70;;;;;;;;;;5074911;28;20027;-64
2022/05/27 14:07:49;;;;;;;13.93;3.25;;;;;;;;;;5074769;28;20473;-64
2022/05/27 14:10:24;;;;;;;9.20;1.90;;;;;;;;;;5074928;28;20066;-63
2022/05/27 14:12:50;;;;;;;5.63;1.50;;;;;;;;;;5074721;28;20107;-63
2022/05/27 14:15:19;;;;;;;8.55;1.52;;;;;;;;;;5074927;28;20052;-63
2022/05/27 14:17:47;;;;;;;4.05;1.20;;;;;;;;;;5068879;28;20021;-62
2022/05/27 14:22:39;;;;;;;6.95;1.50;;;;;;;;;;5054531;28;20075;-63
2022/05/27 14:23:24;;;;;;;4.97;1.50;;;;;;;;;;5054371;28;20063;-64
2022/05/27 14:25:54;;;;;;;1.95;1.00;;;;;;;;;;5054513;28;20029;-63
2022/05/27 14:28:49;;;;;;;5.40;1.40;;;;;;;;;;5054558;28;20044;-62
2022/05/27 14:31:28;;;;;;;8.57;1.40;;;;;;;;;;5052341;28;20049;-62
2022/05/27 14:34:00;;;;;;;3.08;1.10;;;;;;;;;;5054207;28;20486;-63
2022/05/27 14:36:28;;;;;;;8.85;1.35;;;;;;;;;;5054314;28;20032;-63
2022/05/27 14:38:58;;;;;;;4.60;1.10;;;;;;;;;;5054446;28;20025;-63
2022/05/27 14:41:27;;;;;;;4.35;1.08;;;;;;;;;;5054299;28;20151;-62
2022/05/27 14:43:56;;;;;;;3.07;0.83;;;;;;;;;;5054147;28;20060;-63
2022/05/27 14:46:24;;;;;;;5.68;1.20;;;;;;;;;;5053808;28;20266;-63
2022/05/27 14:49:14;;;;;;;2.50;1.10;;;;;;;;;;5054045;28;20443;-64
2022/05/27 14:51:41;;;;;;;3.97;1.20;;;;;;;;;;5031850;28;20048;-62
2022/05/27 14:54:12;;;;;;;3.63;1.00;;;;;;;;;;5031920;28;20034;-63
2022/05/27 14:56:38;;;;;;;4.15;1.20;;;;;;;;;;5031795;28;20386;-63
2022/05/27 14:59:08;;;;;;;1.85;0.90;;;;;;;;;;5031830;28;20038;-63
2022/05/27 15:01:39;;;;;;;3.53;0.90;;;;;;;;;;5031523;28;20029;-63
2022/05/27 15:04:28;;;;;;;2.90;1.08;;;;;;;;;;5031790;28;20383;-62
2022/05/27 15:06:58;;;;;;;2.28;0.98;;;;;;;;;;5030907;28;20092;-63
2022/05/27 15:09:31;;;;;;;3.20;1.08;;;;;;;;;;5031630;28;20033;-63
2022/05/27 15:12:20;;;;;;;2.05;0.90;;;;;;;;;;5031634;28;20356;-63
2022/05/27 15:14:48;;;;;;;3.20;1.00;;;;;;;;;;5031596;28;20428;-63
2022/05/27 15:17:32;;;;;;;2.25;0.70;;;;;;;;;;5031034;28;20104;-64
2022/05/27 15:20:13;;;;;;;3.13;1.00;;;;;;;;;;5031284;28;20053;-64
2022/05/27 15:22:47;;;;;;;3.45;1.30;;;;;;;;;;5031069;28;20042;-63
2022/05/27 15:25:15;;;;;;;3.58;0.90;;;;;;;;;;5031399;28;20175;-64
2022/05/27 15:33:26;;;;;;;5.78;1.60;;;;;;;;;;5033392;28;20443;-64
2022/05/27 15:35:55;;;;;;;6.95;1.30;;;;;;;;;;5033226;28;20097;-63
2022/05/27 15:38:24;;;;;;;4.18;1.27;;;;;;;;;;5033227;28;20032;-64
2022/05/27 15:40:51;;;;;;;6.05;1.25;;;;;;;;;;5033226;28;20068;-63
2022/05/27 15:43:22;;;;;;;6.32;1.42;;;;;;;;;;5033115;28;20108;-63
2022/05/27 15:45:48;;;;;;;4.03;0.60;;;;;;;;;;5033001;28;20050;-62
2022/05/27 15:48:15;;;;;;;1.90;0.63;;;;;;;;;;5038498;28;20100;-62
2022/05/27 15:50:44;;;;;;;2.15;0.60;;;;;;;;;;5052816;28;20024;-63
2022/05/27 15:53:12;;;;;;;2.08;0.60;;;;;;;;;;5052970;28;20470;-62
2022/05/27 15:55:37;;;;;;;1.05;0.60;;;;;;;;;;5052828;28;20458;-63
2022/05/27 15:58:03;;;;;;;2.97;1.20;;;;;;;;;;5052358;28;20025;-62
2022/05/27 16:00:29;;;;;;;1.50;0.50;;;;;;;;;;5052745;28;20063;-63
2022/05/27 16:02:55;;;;;;;1.02;0.50;;;;;;;;;;5052728;28;20033;-62
2022/05/27 16:05:20;;;;;;;1.38;0.60;;;;;;;;;;5052938;28;20052;-63